Carlock, South Dakota
Current Conditions -  °F | °C
As of 12:53 AM on Sunday 23 Nov 2014 (Local Time) from KICR Reporting Station
Few Clouds Few Clouds  
Wind Chill: 42°   Ceiling: Unl
Heat Index: 46°   Visibility: 10mi
Dew Point: 36°   Wind: 7mph
Humidity: 68%   Direction: 220°SW
Pressure: 29.42"   Gusts: NA
Location:  43.2419°N, 99.4287°W
Report Text: KICR 230653Z AUTO 22006KT 10SM FEW085 08/02 A2942 RMK AO2 SLP962 T00780022
Loading
Personal Weather Stations






























Interactive Weather Map New forecast layout! Learn more

10-Day Weather Forecast

Advertisements
Track Severe Weather on mobile